createdAt,value
2022-10-29T08:14:44.464Z,20.30
2022-10-29T08:22:42.324Z,20.40
2022-10-29T08:25:10.565Z,19.20
2022-10-29T08:27:38.260Z,18.00
2022-10-29T08:30:07.596Z,17.20
2022-10-29T08:35:04.182Z,16.40
2022-10-29T08:39:59.803Z,16.50
2022-10-29T08:43:14.834Z,16.30
2022-10-29T08:45:48.542Z,16.60
2022-10-29T08:48:33.892Z,16.90
2022-10-29T08:51:30.631Z,17.30
2022-10-29T08:56:50.728Z,17.70
2022-10-29T08:59:24.443Z,17.80
2022-10-29T09:01:54.918Z,18.00
2022-10-29T09:06:59.173Z,18.40
2022-10-29T09:09:41.149Z,18.40
2022-10-29T09:12:23.802Z,18.30
2022-10-29T09:15:17.247Z,18.40
2022-10-29T09:20:43.557Z,18.10
2022-10-29T09:23:35.477Z,18.00
2022-10-29T09:26:04.909Z,18.00
2022-10-29T09:28:44.092Z,18.20
2022-10-29T09:31:17.453Z,18.20
2022-10-29T09:33:48.383Z,18.40
2022-10-29T09:36:19.954Z,18.50
2022-10-29T09:38:59.328Z,18.60
2022-10-29T09:41:32.471Z,18.80
2022-10-29T09:44:20.772Z,18.90
2022-10-29T09:47:18.971Z,19.10
2022-10-29T09:50:08.789Z,19.40
2022-10-29T09:52:39.798Z,19.60
2022-10-29T09:55:10.868Z,19.70
2022-10-29T09:57:40.359Z,20.00
2022-10-29T10:00:18.013Z,20.00
2022-10-29T10:02:54.776Z,20.00
2022-10-29T10:05:35.506Z,20.50
2022-10-29T10:08:13.984Z,20.10
2022-10-29T10:10:58.070Z,19.50
2022-10-29T10:13:38.429Z,19.60
2022-10-29T10:16:06.636Z,19.70
2022-10-29T10:21:04.310Z,19.90
2022-10-29T10:23:41.808Z,19.80
2022-10-29T10:26:28.655Z,19.90
2022-10-29T10:29:14.758Z,19.80
2022-10-29T10:31:46.755Z,19.90
2022-10-29T10:34:35.782Z,20.10
2022-10-29T10:37:05.877Z,20.10
2022-10-29T10:39:44.767Z,20.40
2022-10-29T10:42:22.454Z,20.60
2022-10-29T10:44:52.257Z,20.90
2022-10-29T10:47:23.146Z,21.10
2022-10-29T10:54:59.243Z,21.10
2022-10-29T10:57:34.837Z,21.00
2022-10-29T11:00:17.083Z,20.80
2022-10-29T11:05:20.796Z,21.50
2022-10-29T11:08:08.685Z,21.60
2022-10-29T11:10:43.342Z,21.70
2022-10-29T11:13:17.856Z,21.80
2022-10-29T11:15:49.392Z,21.90
2022-10-29T11:20:59.550Z,21.10
2022-10-29T11:23:47.635Z,21.20
2022-10-29T11:26:21.604Z,21.60
2022-10-29T11:29:11.347Z,21.60
2022-10-29T11:31:58.874Z,21.60
2022-10-29T11:34:38.062Z,22.10
2022-10-29T11:37:17.440Z,22.30
2022-10-29T11:39:56.421Z,22.20
2022-10-29T11:44:51.854Z,22.40
2022-10-29T11:47:43.762Z,22.30
2022-10-29T11:50:25.455Z,22.50
2022-10-29T11:53:18.298Z,22.50
2022-10-29T11:55:57.532Z,22.50
2022-10-29T11:58:38.168Z,22.60
2022-10-29T12:01:20.358Z,22.70
2022-10-29T12:04:05.669Z,22.70
2022-10-29T12:07:02.438Z,22.90
2022-10-29T12:09:54.378Z,22.80
2022-10-29T12:12:42.495Z,22.60
2022-10-29T12:15:13.898Z,22.40
2022-10-29T12:18:17.236Z,22.90
2022-10-29T12:20:55.987Z,23.20
2022-10-29T12:26:03.414Z,23.00
2022-10-29T12:28:54.399Z,23.20
2022-10-29T12:31:35.809Z,23.30
2022-10-29T12:34:20.391Z,23.40
2022-10-29T12:37:04.114Z,22.90
2022-10-29T12:39:49.979Z,22.90
2022-10-29T12:42:22.884Z,22.90
2022-10-29T12:45:25.058Z,22.80
2022-10-29T12:53:05.801Z,23.50
2022-10-29T12:58:40.087Z,23.10
2022-10-29T13:03:54.975Z,23.00
2022-10-29T13:06:43.891Z,23.10
2022-10-29T13:09:19.520Z,23.70
2022-10-29T13:11:55.436Z,23.60
2022-10-29T13:14:42.203Z,23.90
2022-10-29T13:17:26.002Z,24.20
2022-10-29T13:19:59.302Z,24.10
2022-10-29T13:22:47.359Z,24.40
2022-10-29T13:25:43.037Z,24.20
2022-10-29T13:28:10.069Z,24.00
2022-10-29T13:30:39.489Z,24.20
2022-10-29T13:33:28.343Z,24.00
2022-10-29T13:38:58.067Z,23.90
2022-10-29T13:44:24.890Z,23.20
2022-10-29T13:47:01.157Z,22.90
2022-10-29T13:49:37.365Z,22.80
2022-10-29T13:52:14.775Z,22.70
2022-10-29T13:54:50.424Z,22.70
2022-10-29T13:57:59.362Z,22.70
2022-10-29T14:00:27.614Z,22.80
2022-10-29T14:03:17.061Z,23.20
2022-10-29T14:08:14.194Z,23.30
2022-10-29T14:13:29.021Z,22.80
2022-10-29T14:16:16.512Z,22.90
2022-10-29T14:18:45.816Z,22.90
2022-10-29T14:21:26.918Z,22.80
2022-10-29T14:24:02.513Z,22.70
2022-10-29T14:26:31.828Z,22.50
2022-10-29T14:29:20.431Z,22.30
2022-10-29T14:32:06.526Z,22.20
2022-10-29T14:37:06.077Z,22.10
2022-10-29T14:39:56.915Z,21.80
2022-10-29T14:42:38.195Z,21.70
2022-10-29T14:45:08.568Z,21.70
2022-10-29T14:47:37.582Z,21.60
2022-10-29T14:50:14.548Z,21.60
2022-10-29T14:52:49.664Z,21.30
2022-10-29T14:55:32.072Z,21.10
2022-10-29T15:00:58.408Z,21.00
2022-10-29T15:03:30.395Z,20.90
2022-10-29T15:06:15.092Z,20.80
2022-10-29T15:08:44.984Z,20.50
2022-10-29T15:11:38.515Z,20.50
2022-10-29T15:19:22.778Z,20.20
2022-10-29T15:24:21.850Z,19.90
2022-10-29T15:26:58.608Z,20.00
2022-10-29T15:29:34.077Z,19.90
2022-10-29T15:32:02.918Z,19.30
2022-10-29T15:34:36.289Z,19.60
2022-10-29T15:37:32.090Z,19.60
2022-10-29T15:40:03.056Z,19.20
2022-10-29T15:42:33.437Z,19.20
2022-10-29T15:47:46.771Z,19.00
2022-10-29T15:50:19.870Z,18.90
2022-10-29T15:52:59.163Z,18.80
2022-10-29T15:55:38.502Z,18.70
2022-10-29T15:58:14.814Z,18.90
2022-10-29T16:00:42.185Z,18.70
2022-10-29T16:05:37.401Z,18.60
2022-10-29T16:10:32.754Z,18.10
2022-10-29T16:22:51.841Z,18.20
2022-10-29T16:25:25.505Z,18.20
2022-10-29T16:27:52.863Z,18.20
2022-10-29T16:30:21.598Z,18.10
2022-10-29T16:32:50.059Z,18.00
2022-10-29T16:35:26.036Z,17.70
2022-10-29T16:37:54.721Z,17.50
2022-10-29T16:40:27.006Z,17.40
2022-10-29T16:45:29.888Z,17.30
2022-10-29T16:50:27.267Z,17.30
2022-10-29T16:53:02.313Z,17.10
2022-10-29T16:55:32.458Z,15.60
2022-10-29T16:58:00.398Z,17.10
2022-10-29T17:03:05.128Z,17.00
2022-10-29T17:05:40.287Z,16.80
2022-10-29T17:08:07.672Z,16.60
2022-10-29T17:10:35.705Z,16.60
2022-10-29T17:15:30.664Z,16.60
2022-10-29T17:20:25.875Z,16.60
2022-10-29T17:22:53.300Z,16.50
2022-10-29T17:30:15.817Z,16.40
2022-10-29T18:04:45.903Z,15.50
2022-10-29T18:46:37.028Z,15.60
2022-10-29T18:51:32.775Z,15.40
2022-10-29T18:56:29.307Z,15.30
2022-10-29T19:01:27.329Z,15.30
2022-10-29T19:03:57.058Z,15.10
2022-10-29T19:06:25.648Z,15.10
2022-10-29T19:11:24.030Z,15.00
2022-10-29T19:13:58.853Z,15.00
2022-10-29T19:16:26.623Z,14.90
2022-10-29T19:19:03.025Z,15.20
2022-10-29T19:21:34.955Z,15.20
2022-10-29T19:26:31.681Z,15.10
2022-10-29T19:29:00.970Z,15.10
2022-10-29T19:31:31.403Z,15.00
2022-10-29T19:34:00.892Z,15.20
2022-10-29T19:36:29.456Z,15.10
2022-10-29T19:41:24.997Z,15.30
2022-10-29T19:46:24.336Z,15.30
2022-10-29T19:48:54.307Z,15.30
2022-10-29T19:53:51.506Z,14.30
2022-10-29T20:01:16.531Z,15.00
2022-10-29T20:06:11.395Z,15.10
2022-10-29T20:11:06.279Z,15.00
2022-10-29T20:20:57.049Z,14.60
2022-10-29T20:23:25.721Z,14.60
2022-10-29T20:38:09.910Z,14.80
2022-10-29T20:48:01.900Z,14.70
2022-10-29T21:12:36.008Z,14.50
2022-10-29T22:23:58.568Z,13.60
2022-10-29T22:26:27.931Z,13.70
2022-10-29T22:31:23.413Z,13.60
2022-10-29T22:36:26.031Z,13.70
2022-10-29T22:38:57.640Z,13.70
2022-10-29T22:41:26.128Z,13.80
2022-10-29T22:46:22.087Z,13.80
2022-10-29T22:48:49.156Z,13.70
2022-10-29T22:51:18.922Z,13.60
2022-10-29T22:56:19.298Z,13.80
2022-10-29T22:58:46.842Z,13.70
2022-10-29T23:01:16.433Z,13.70
2022-10-29T23:06:13.596Z,13.60
2022-10-29T23:11:30.035Z,13.70
2022-10-29T23:13:58.874Z,13.80
2022-10-29T23:16:28.116Z,13.90
2022-10-29T23:18:57.321Z,13.50
2022-10-29T23:26:20.676Z,13.60
2022-10-29T23:28:48.908Z,13.70
2022-10-29T23:31:24.877Z,13.70
2022-10-29T23:33:53.785Z,13.70
2022-10-29T23:36:23.211Z,13.70
2022-10-29T23:38:57.627Z,13.80
2022-10-29T23:41:25.735Z,13.80
2022-10-29T23:43:53.442Z,13.60
